sensor_id;sensor_type;location;lat;lon;timestamp;pressure;altitude;pressure_sealevel;temperature;humidity
76337;BME280;65157;50.082;18.178;2023-02-25T00:00:24;97160.67;;;7.16;77.46
76337;BME280;65157;50.082;18.178;2023-02-25T00:03:11;97159.42;;;7.16;77.58
76337;BME280;65157;50.082;18.178;2023-02-25T00:05:38;97161.05;;;7.15;77.51
76337;BME280;65157;50.082;18.178;2023-02-25T00:08:06;97163.66;;;7.16;77.63
76337;BME280;65157;50.082;18.178;2023-02-25T00:10:33;97158.77;;;7.18;77.59
76337;BME280;65157;50.082;18.178;2023-02-25T00:13:00;97156.14;;;7.18;77.75
76337;BME280;65157;50.082;18.178;2023-02-25T00:15:26;97147.67;;;7.16;77.83
76337;BME280;65157;50.082;18.178;2023-02-25T00:17:53;97143.79;;;7.14;77.79
76337;BME280;65157;50.082;18.178;2023-02-25T00:20:19;97139.46;;;7.13;77.82
76337;BME280;65157;50.082;18.178;2023-02-25T00:22:46;97137.83;;;7.05;77.93
76337;BME280;65157;50.082;18.178;2023-02-25T00:25:13;97138.34;;;7.03;78.06
76337;BME280;65157;50.082;18.178;2023-02-25T00:27:39;97134.80;;;6.98;78.08
76337;BME280;65157;50.082;18.178;2023-02-25T00:30:07;97126.80;;;6.94;78.15
76337;BME280;65157;50.082;18.178;2023-02-25T00:32:34;97124.70;;;6.88;78.37
76337;BME280;65157;50.082;18.178;2023-02-25T00:35:00;97121.96;;;6.84;78.34
76337;BME280;65157;50.082;18.178;2023-02-25T00:37:27;97126.41;;;6.80;78.44
76337;BME280;65157;50.082;18.178;2023-02-25T00:39:54;97123.99;;;6.76;78.45
76337;BME280;65157;50.082;18.178;2023-02-25T00:42:20;97119.45;;;6.73;78.37
76337;BME280;65157;50.082;18.178;2023-02-25T00:44:49;97118.46;;;6.72;78.35
76337;BME280;65157;50.082;18.178;2023-02-25T00:47:18;97112.27;;;6.67;78.23
76337;BME280;65157;50.082;18.178;2023-02-25T00:49:46;97110.24;;;6.66;78.33
76337;BME280;65157;50.082;18.178;2023-02-25T00:52:14;97110.02;;;6.64;78.41
76337;BME280;65157;50.082;18.178;2023-02-25T00:54:41;97102.27;;;6.62;78.59
76337;BME280;65157;50.082;18.178;2023-02-25T00:57:08;97095.66;;;6.58;78.54
76337;BME280;65157;50.082;18.178;2023-02-25T00:59:34;97094.39;;;6.53;78.54
76337;BME280;65157;50.082;18.178;2023-02-25T01:02:01;97098.11;;;6.50;78.52
76337;BME280;65157;50.082;18.178;2023-02-25T01:04:28;97091.51;;;6.46;78.64
76337;BME280;65157;50.082;18.178;2023-02-25T01:06:54;97088.28;;;6.44;78.76
76337;BME280;65157;50.082;18.178;2023-02-25T01:09:21;97087.25;;;6.41;78.75
76337;BME280;65157;50.082;18.178;2023-02-25T01:11:48;97091.47;;;6.38;78.66
76337;BME280;65157;50.082;18.178;2023-02-25T01:14:23;97093.08;;;6.35;78.87
76337;BME280;65157;50.082;18.178;2023-02-25T01:16:51;97088.72;;;6.31;78.84
76337;BME280;65157;50.082;18.178;2023-02-25T01:19:23;97085.13;;;6.27;78.98
76337;BME280;65157;50.082;18.178;2023-02-25T01:21:53;97083.27;;;6.23;78.81
76337;BME280;65157;50.082;18.178;2023-02-25T01:24:26;97088.96;;;6.18;78.88
76337;BME280;65157;50.082;18.178;2023-02-25T01:26:56;97084.86;;;6.14;78.80
76337;BME280;65157;50.082;18.178;2023-02-25T01:29:29;97086.80;;;6.11;78.89
76337;BME280;65157;50.082;18.178;2023-02-25T01:31:59;97090.05;;;6.09;79.20
76337;BME280;65157;50.082;18.178;2023-02-25T01:34:27;97097.90;;;6.03;79.17
76337;BME280;65157;50.082;18.178;2023-02-25T01:36:54;97102.48;;;6.03;79.34
76337;BME280;65157;50.082;18.178;2023-02-25T01:39:22;97096.31;;;6.04;79.20
76337;BME280;65157;50.082;18.178;2023-02-25T01:41:49;97092.95;;;6.04;79.32
76337;BME280;65157;50.082;18.178;2023-02-25T01:44:24;97093.73;;;6.06;79.17
76337;BME280;65157;50.082;18.178;2023-02-25T01:46:54;97097.04;;;6.09;79.24
76337;BME280;65157;50.082;18.178;2023-02-25T01:49:29;97095.00;;;6.11;79.37
76337;BME280;65157;50.082;18.178;2023-02-25T01:52:02;97093.80;;;6.16;79.49
76337;BME280;65157;50.082;18.178;2023-02-25T01:54:30;97098.15;;;6.20;79.59
76337;BME280;65157;50.082;18.178;2023-02-25T01:56:58;97095.96;;;6.21;79.48
76337;BME280;65157;50.082;18.178;2023-02-25T01:59:26;97090.45;;;6.23;79.55
76337;BME280;65157;50.082;18.178;2023-02-25T02:01:54;97094.59;;;6.23;79.64
76337;BME280;65157;50.082;18.178;2023-02-25T02:04:21;97100.28;;;6.16;79.73
76337;BME280;65157;50.082;18.178;2023-02-25T02:06:50;97108.08;;;6.09;79.70
76337;BME280;65157;50.082;18.178;2023-02-25T02:09:20;97108.34;;;6.05;79.81
76337;BME280;65157;50.082;18.178;2023-02-25T02:11:48;97104.61;;;6.06;79.82
76337;BME280;65157;50.082;18.178;2023-02-25T02:14:23;97102.17;;;6.08;79.54
76337;BME280;65157;50.082;18.178;2023-02-25T02:17:23;97097.64;;;6.14;79.40
76337;BME280;65157;50.082;18.178;2023-02-25T02:28:18;97090.77;;;6.20;78.79
76337;BME280;65157;50.082;18.178;2023-02-25T02:33:43;97117.29;;;6.16;78.41
76337;BME280;65157;50.082;18.178;2023-02-25T02:39:14;97114.16;;;6.04;78.14
76337;BME280;65157;50.082;18.178;2023-02-25T02:41:51;97121.51;;;6.01;78.11
76337;BME280;65157;50.082;18.178;2023-02-25T02:44:30;97137.78;;;5.92;77.47
76337;BME280;65157;50.082;18.178;2023-02-25T02:47:08;97148.10;;;5.73;77.19
76337;BME280;65157;50.082;18.178;2023-02-25T02:49:43;97145.80;;;5.58;77.69
76337;BME280;65157;50.082;18.178;2023-02-25T02:52:15;97154.17;;;5.49;78.32
76337;BME280;65157;50.082;18.178;2023-02-25T02:54:50;97160.62;;;5.38;78.48
76337;BME280;65157;50.082;18.178;2023-02-25T02:57:20;97161.86;;;5.31;78.66
76337;BME280;65157;50.082;18.178;2023-02-25T02:59:53;97158.84;;;5.29;78.53
76337;BME280;65157;50.082;18.178;2023-02-25T03:02:34;97158.56;;;5.27;78.55
76337;BME280;65157;50.082;18.178;2023-02-25T03:05:06;97161.06;;;5.20;78.49
76337;BME280;65157;50.082;18.178;2023-02-25T03:07:37;97157.52;;;5.11;78.33
76337;BME280;65157;50.082;18.178;2023-02-25T03:10:06;97163.90;;;5.03;78.60
76337;BME280;65157;50.082;18.178;2023-02-25T03:12:33;97173.89;;;4.99;78.64
76337;BME280;65157;50.082;18.178;2023-02-25T03:14:59;97176.26;;;4.94;78.46
76337;BME280;65157;50.082;18.178;2023-02-25T03:17:29;97176.98;;;4.90;78.59
76337;BME280;65157;50.082;18.178;2023-02-25T03:20:15;97186.23;;;4.84;78.06
76337;BME280;65157;50.082;18.178;2023-02-25T03:22:47;97176.64;;;4.77;78.19
76337;BME280;65157;50.082;18.178;2023-02-25T03:25:24;97174.31;;;4.75;77.93
76337;BME280;65157;50.082;18.178;2023-02-25T03:27:53;97168.35;;;4.75;78.01
76337;BME280;65157;50.082;18.178;2023-02-25T03:30:37;97181.91;;;4.80;78.11
76337;BME280;65157;50.082;18.178;2023-02-25T03:33:15;97193.18;;;4.78;78.08
76337;BME280;65157;50.082;18.178;2023-02-25T03:35:45;97186.91;;;4.71;78.29
76337;BME280;65157;50.082;18.178;2023-02-25T03:38:18;97186.97;;;4.67;78.38
76337;BME280;65157;50.082;18.178;2023-02-25T03:40:47;97181.77;;;4.66;78.39
76337;BME280;65157;50.082;18.178;2023-02-25T03:43:21;97181.29;;;4.65;78.24
76337;BME280;65157;50.082;18.178;2023-02-25T03:45:49;97185.05;;;4.63;78.29
76337;BME280;65157;50.082;18.178;2023-02-25T03:48:16;97190.91;;;4.58;78.40
76337;BME280;65157;50.082;18.178;2023-02-25T03:50:47;97188.54;;;4.53;78.54
76337;BME280;65157;50.082;18.178;2023-02-25T03:53:17;97188.80;;;4.51;78.58
76337;BME280;65157;50.082;18.178;2023-02-25T03:55:44;97191.54;;;4.49;78.52
76337;BME280;65157;50.082;18.178;2023-02-25T03:58:11;97188.27;;;4.48;78.73
76337;BME280;65157;50.082;18.178;2023-02-25T04:00:40;97191.55;;;4.49;78.69
76337;BME280;65157;50.082;18.178;2023-02-25T04:03:09;97184.23;;;4.49;78.73
76337;BME280;65157;50.082;18.178;2023-02-25T04:05:35;97179.80;;;4.46;78.58
76337;BME280;65157;50.082;18.178;2023-02-25T04:08:02;97177.63;;;4.41;78.45
76337;BME280;65157;50.082;18.178;2023-02-25T04:10:28;97178.41;;;4.36;78.52
76337;BME280;65157;50.082;18.178;2023-02-25T04:12:55;97184.05;;;4.32;78.39
76337;BME280;65157;50.082;18.178;2023-02-25T04:15:22;97180.86;;;4.29;78.44
76337;BME280;65157;50.082;18.178;2023-02-25T04:17:48;97178.29;;;4.32;78.59
76337;BME280;65157;50.082;18.178;2023-02-25T04:20:15;97172.05;;;4.34;78.57
76337;BME280;65157;50.082;18.178;2023-02-25T04:22:42;97172.13;;;4.36;78.47
76337;BME280;65157;50.082;18.178;2023-02-25T04:25:09;97167.63;;;4.35;78.33
76337;BME280;65157;50.082;18.178;2023-02-25T04:27:36;97164.02;;;4.34;78.42
76337;BME280;65157;50.082;18.178;2023-02-25T04:30:04;97165.80;;;4.33;78.31
76337;BME280;65157;50.082;18.178;2023-02-25T04:32:30;97170.69;;;4.34;78.36
76337;BME280;65157;50.082;18.178;2023-02-25T04:34:57;97174.37;;;4.33;78.25
76337;BME280;65157;50.082;18.178;2023-02-25T04:37:24;97171.59;;;4.33;78.19
76337;BME280;65157;50.082;18.178;2023-02-25T04:39:50;97169.11;;;4.34;78.17
76337;BME280;65157;50.082;18.178;2023-02-25T04:42:17;97168.57;;;4.34;78.00
76337;BME280;65157;50.082;18.178;2023-02-25T04:44:43;97174.48;;;4.34;77.99
76337;BME280;65157;50.082;18.178;2023-02-25T04:47:10;97178.94;;;4.33;77.97
76337;BME280;65157;50.082;18.178;2023-02-25T04:49:36;97178.86;;;4.34;77.89
76337;BME280;65157;50.082;18.178;2023-02-25T04:52:03;97177.00;;;4.33;77.93
76337;BME280;65157;50.082;18.178;2023-02-25T04:54:30;97177.34;;;4.30;77.84
76337;BME280;65157;50.082;18.178;2023-02-25T04:56:56;97176.17;;;4.22;77.84
76337;BME280;65157;50.082;18.178;2023-02-25T04:59:23;97174.41;;;4.19;77.90
76337;BME280;65157;50.082;18.178;2023-02-25T05:01:49;97172.30;;;4.19;77.80
76337;BME280;65157;50.082;18.178;2023-02-25T05:04:16;97168.30;;;4.19;77.69
76337;BME280;65157;50.082;18.178;2023-02-25T05:06:43;97171.14;;;4.15;77.59
76337;BME280;65157;50.082;18.178;2023-02-25T05:09:10;97177.20;;;4.05;77.43
76337;BME280;65157;50.082;18.178;2023-02-25T05:11:36;97181.34;;;3.95;77.35
76337;BME280;65157;50.082;18.178;2023-02-25T05:14:03;97178.81;;;3.86;76.98
76337;BME280;65157;50.082;18.178;2023-02-25T05:16:30;97184.85;;;3.84;77.23
76337;BME280;65157;50.082;18.178;2023-02-25T05:18:57;97182.34;;;3.82;77.00
76337;BME280;65157;50.082;18.178;2023-02-25T05:21:25;97175.16;;;3.79;76.60
76337;BME280;65157;50.082;18.178;2023-02-25T05:23:52;97173.79;;;3.78;76.71
76337;BME280;65157;50.082;18.178;2023-02-25T05:26:20;97174.15;;;3.78;76.62
76337;BME280;65157;50.082;18.178;2023-02-25T05:28:51;97179.86;;;3.76;76.36
76337;BME280;65157;50.082;18.178;2023-02-25T05:31:18;97177.48;;;3.71;76.75
76337;BME280;65157;50.082;18.178;2023-02-25T05:33:45;97173.61;;;3.67;76.70
76337;BME280;65157;50.082;18.178;2023-02-25T05:36:13;97175.41;;;3.66;76.37
76337;BME280;65157;50.082;18.178;2023-02-25T05:38:43;97171.73;;;3.66;76.02
76337;BME280;65157;50.082;18.178;2023-02-25T05:41:11;97174.50;;;3.67;76.12
76337;BME280;65157;50.082;18.178;2023-02-25T05:43:41;97170.73;;;3.66;75.97
76337;BME280;65157;50.082;18.178;2023-02-25T05:46:10;97172.23;;;3.64;75.84
76337;BME280;65157;50.082;18.178;2023-02-25T05:48:39;97172.45;;;3.63;75.99
76337;BME280;65157;50.082;18.178;2023-02-25T05:51:10;97175.40;;;3.63;76.13
76337;BME280;65157;50.082;18.178;2023-02-25T05:53:39;97183.11;;;3.62;76.24
76337;BME280;65157;50.082;18.178;2023-02-25T05:56:11;97191.77;;;3.63;76.22
76337;BME280;65157;50.082;18.178;2023-02-25T05:58:38;97190.17;;;3.64;75.80
76337;BME280;65157;50.082;18.178;2023-02-25T06:01:07;97190.85;;;3.65;75.60
76337;BME280;65157;50.082;18.178;2023-02-25T06:03:35;97194.86;;;3.65;75.12
76337;BME280;65157;50.082;18.178;2023-02-25T06:06:02;97196.64;;;3.64;75.62
76337;BME280;65157;50.082;18.178;2023-02-25T06:08:28;97200.92;;;3.66;75.26
76337;BME280;65157;50.082;18.178;2023-02-25T06:10:55;97195.14;;;3.66;75.38
76337;BME280;65157;50.082;18.178;2023-02-25T06:13:22;97195.26;;;3.67;75.52
76337;BME280;65157;50.082;18.178;2023-02-25T06:15:48;97199.34;;;3.69;75.66
76337;BME280;65157;50.082;18.178;2023-02-25T06:18:15;97195.70;;;3.73;75.46
76337;BME280;65157;50.082;18.178;2023-02-25T06:20:41;97198.94;;;3.74;75.61
76337;BME280;65157;50.082;18.178;2023-02-25T06:23:08;97191.65;;;3.73;75.21
76337;BME280;65157;50.082;18.178;2023-02-25T06:25:35;97190.54;;;3.71;74.56
76337;BME280;65157;50.082;18.178;2023-02-25T06:28:01;97193.69;;;3.74;74.59
76337;BME280;65157;50.082;18.178;2023-02-25T06:30:29;97194.85;;;3.75;74.92
76337;BME280;65157;50.082;18.178;2023-02-25T06:32:56;97198.97;;;3.77;74.70
76337;BME280;65157;50.082;18.178;2023-02-25T06:35:23;97203.02;;;3.80;75.03
76337;BME280;65157;50.082;18.178;2023-02-25T06:37:57;97208.79;;;3.83;75.01
76337;BME280;65157;50.082;18.178;2023-02-25T06:40:25;97211.31;;;3.85;75.13
76337;BME280;65157;50.082;18.178;2023-02-25T06:42:51;97215.73;;;3.88;75.16
76337;BME280;65157;50.082;18.178;2023-02-25T06:45:18;97216.21;;;3.88;75.20
76337;BME280;65157;50.082;18.178;2023-02-25T06:47:45;97218.76;;;3.90;75.15
76337;BME280;65157;50.082;18.178;2023-02-25T06:50:11;97215.77;;;3.87;75.15
76337;BME280;65157;50.082;18.178;2023-02-25T06:52:38;97217.89;;;3.90;74.99
76337;BME280;65157;50.082;18.178;2023-02-25T06:55:05;97219.21;;;3.91;75.48
76337;BME280;65157;50.082;18.178;2023-02-25T06:57:32;97220.42;;;3.91;75.67
76337;BME280;65157;50.082;18.178;2023-02-25T06:59:59;97222.87;;;3.92;75.75
76337;BME280;65157;50.082;18.178;2023-02-25T07:02:26;97224.02;;;3.93;76.10
76337;BME280;65157;50.082;18.178;2023-02-25T07:04:53;97228.75;;;3.89;76.11
76337;BME280;65157;50.082;18.178;2023-02-25T07:07:21;97236.31;;;3.84;76.54
76337;BME280;65157;50.082;18.178;2023-02-25T07:09:47;97242.09;;;3.84;76.88
76337;BME280;65157;50.082;18.178;2023-02-25T07:12:14;97238.70;;;3.85;77.18
76337;BME280;65157;50.082;18.178;2023-02-25T07:14:41;97236.95;;;3.89;77.06
76337;BME280;65157;50.082;18.178;2023-02-25T07:17:07;97242.76;;;3.95;77.00
76337;BME280;65157;50.082;18.178;2023-02-25T07:19:34;97238.52;;;4.03;76.84
76337;BME280;65157;50.082;18.178;2023-02-25T07:22:01;97233.98;;;4.11;76.40
76337;BME280;65157;50.082;18.178;2023-02-25T07:24:27;97231.75;;;4.17;75.82
76337;BME280;65157;50.082;18.178;2023-02-25T07:26:54;97240.85;;;4.20;75.48
76337;BME280;65157;50.082;18.178;2023-02-25T07:29:21;97232.33;;;4.26;75.65
76337;BME280;65157;50.082;18.178;2023-02-25T07:31:47;97229.45;;;4.35;75.54
76337;BME280;65157;50.082;18.178;2023-02-25T07:34:14;97222.86;;;4.41;75.27
76337;BME280;65157;50.082;18.178;2023-02-25T07:36:41;97224.19;;;4.49;74.89
76337;BME280;65157;50.082;18.178;2023-02-25T07:39:10;97224.85;;;4.57;74.95
76337;BME280;65157;50.082;18.178;2023-02-25T07:41:37;97225.16;;;4.65;74.20
76337;BME280;65157;50.082;18.178;2023-02-25T07:44:05;97223.11;;;4.71;72.89
76337;BME280;65157;50.082;18.178;2023-02-25T07:46:32;97222.45;;;4.77;72.48
76337;BME280;65157;50.082;18.178;2023-02-25T07:48:59;97226.80;;;4.84;72.19
76337;BME280;65157;50.082;18.178;2023-02-25T07:51:26;97230.02;;;4.89;70.97
76337;BME280;65157;50.082;18.178;2023-02-25T07:53:55;97230.86;;;4.93;71.19
76337;BME280;65157;50.082;18.178;2023-02-25T07:56:23;97237.09;;;4.97;69.79
76337;BME280;65157;50.082;18.178;2023-02-25T07:58:50;97231.02;;;5.03;70.17
76337;BME280;65157;50.082;18.178;2023-02-25T08:01:22;97231.36;;;5.07;69.27
76337;BME280;65157;50.082;18.178;2023-02-25T08:03:50;97235.45;;;5.09;68.79
76337;BME280;65157;50.082;18.178;2023-02-25T08:06:18;97230.13;;;5.07;68.51
76337;BME280;65157;50.082;18.178;2023-02-25T08:08:46;97229.52;;;5.05;68.44
76337;BME280;65157;50.082;18.178;2023-02-25T08:11:13;97229.83;;;5.03;68.10
76337;BME280;65157;50.082;18.178;2023-02-25T08:13:40;97230.20;;;4.99;67.50
76337;BME280;65157;50.082;18.178;2023-02-25T08:16:09;97228.77;;;4.93;67.28
76337;BME280;65157;50.082;18.178;2023-02-25T08:18:36;97230.13;;;4.90;68.63
76337;BME280;65157;50.082;18.178;2023-02-25T08:21:03;97230.23;;;4.88;68.06
76337;BME280;65157;50.082;18.178;2023-02-25T08:23:30;97234.94;;;4.89;68.10
76337;BME280;65157;50.082;18.178;2023-02-25T08:25:58;97237.33;;;4.89;68.13
76337;BME280;65157;50.082;18.178;2023-02-25T08:28:26;97237.39;;;4.92;68.07
76337;BME280;65157;50.082;18.178;2023-02-25T08:30:53;97239.66;;;5.02;68.80
76337;BME280;65157;50.082;18.178;2023-02-25T08:33:20;97235.83;;;5.18;69.05
76337;BME280;65157;50.082;18.178;2023-02-25T08:35:47;97235.33;;;5.34;67.93
76337;BME280;65157;50.082;18.178;2023-02-25T08:38:13;97233.07;;;5.46;67.87
76337;BME280;65157;50.082;18.178;2023-02-25T08:40:41;97233.82;;;5.68;67.80
76337;BME280;65157;50.082;18.178;2023-02-25T08:43:08;97232.05;;;5.94;66.87
76337;BME280;65157;50.082;18.178;2023-02-25T08:45:39;97235.06;;;6.21;66.02
76337;BME280;65157;50.082;18.178;2023-02-25T08:48:06;97230.27;;;6.40;66.04
76337;BME280;65157;50.082;18.178;2023-02-25T08:50:33;97230.31;;;6.43;65.35
76337;BME280;65157;50.082;18.178;2023-02-25T08:52:59;97227.64;;;6.47;66.58
76337;BME280;65157;50.082;18.178;2023-02-25T08:55:26;97232.14;;;6.44;65.79
76337;BME280;65157;50.082;18.178;2023-02-25T08:57:53;97237.20;;;6.42;65.87
76337;BME280;65157;50.082;18.178;2023-02-25T09:00:20;97234.84;;;6.40;65.72
76337;BME280;65157;50.082;18.178;2023-02-25T09:02:47;97235.80;;;6.36;65.22
76337;BME280;65157;50.082;18.178;2023-02-25T09:05:13;97233.33;;;6.33;65.60
76337;BME280;65157;50.082;18.178;2023-02-25T09:07:40;97227.77;;;6.35;65.92
76337;BME280;65157;50.082;18.178;2023-02-25T09:10:07;97228.02;;;6.37;65.10
76337;BME280;65157;50.082;18.178;2023-02-25T09:12:35;97226.61;;;6.31;65.55
76337;BME280;65157;50.082;18.178;2023-02-25T09:15:01;97229.92;;;6.28;64.99
76337;BME280;65157;50.082;18.178;2023-02-25T09:17:28;97232.95;;;6.18;65.08
76337;BME280;65157;50.082;18.178;2023-02-25T09:19:55;97234.70;;;6.09;65.48
76337;BME280;65157;50.082;18.178;2023-02-25T09:22:21;97240.27;;;5.94;65.21
76337;BME280;65157;50.082;18.178;2023-02-25T09:24:48;97239.15;;;5.82;65.48
76337;BME280;65157;50.082;18.178;2023-02-25T09:27:14;97240.39;;;5.69;64.99
76337;BME280;65157;50.082;18.178;2023-02-25T09:29:41;97237.50;;;5.58;65.51
76337;BME280;65157;50.082;18.178;2023-02-25T09:32:15;97240.46;;;5.49;65.86
76337;BME280;65157;50.082;18.178;2023-02-25T09:34:42;97242.52;;;5.43;66.82
76337;BME280;65157;50.082;18.178;2023-02-25T09:37:08;97241.66;;;5.43;66.93
76337;BME280;65157;50.082;18.178;2023-02-25T09:39:35;97245.49;;;5.43;66.76
76337;BME280;65157;50.082;18.178;2023-02-25T09:42:07;97252.90;;;5.45;66.67
76337;BME280;65157;50.082;18.178;2023-02-25T09:44:45;97253.86;;;5.47;66.54
76337;BME280;65157;50.082;18.178;2023-02-25T09:50:04;97256.61;;;5.45;66.85
76337;BME280;65157;50.082;18.178;2023-02-25T09:55:30;97259.91;;;5.39;66.63
76337;BME280;65157;50.082;18.178;2023-02-25T10:03:23;97259.46;;;5.21;67.27
76337;BME280;65157;50.082;18.178;2023-02-25T10:06:45;97260.73;;;5.17;67.16
76337;BME280;65157;50.082;18.178;2023-02-25T10:15:11;97262.90;;;5.15;67.52
76337;BME280;65157;50.082;18.178;2023-02-25T10:28:43;97262.38;;;5.35;67.84
76337;BME280;65157;50.082;18.178;2023-02-25T10:31:14;97264.46;;;5.39;67.80
76337;BME280;65157;50.082;18.178;2023-02-25T10:33:44;97261.70;;;5.41;67.93
76337;BME280;65157;50.082;18.178;2023-02-25T10:36:21;97265.14;;;5.42;67.50
76337;BME280;65157;50.082;18.178;2023-02-25T10:38:52;97265.41;;;5.41;67.45
76337;BME280;65157;50.082;18.178;2023-02-25T10:41:21;97265.64;;;5.43;67.75
76337;BME280;65157;50.082;18.178;2023-02-25T10:43:50;97263.65;;;5.44;67.83
76337;BME280;65157;50.082;18.178;2023-02-25T10:48:49;97264.33;;;5.41;67.67
76337;BME280;65157;50.082;18.178;2023-02-25T10:51:18;97270.50;;;5.40;67.20
76337;BME280;65157;50.082;18.178;2023-02-25T10:56:20;97272.25;;;5.34;66.56
76337;BME280;65157;50.082;18.178;2023-02-25T11:01:42;97270.96;;;5.28;67.29
76337;BME280;65157;50.082;18.178;2023-02-25T11:04:10;97276.48;;;5.27;67.45
76337;BME280;65157;50.082;18.178;2023-02-25T11:06:42;97275.78;;;5.23;67.60
76337;BME280;65157;50.082;18.178;2023-02-25T11:11:56;97270.54;;;5.23;67.60
76337;BME280;65157;50.082;18.178;2023-02-25T11:14:32;97275.52;;;5.25;67.47
76337;BME280;65157;50.082;18.178;2023-02-25T11:17:11;97275.88;;;5.25;67.06
76337;BME280;65157;50.082;18.178;2023-02-25T11:19:50;97279.94;;;5.24;66.78
76337;BME280;65157;50.082;18.178;2023-02-25T11:22:21;97280.02;;;5.23;67.10
76337;BME280;65157;50.082;18.178;2023-02-25T11:25:00;97279.11;;;5.20;67.08
76337;BME280;65157;50.082;18.178;2023-02-25T11:27:32;97282.38;;;5.17;67.47
76337;BME280;65157;50.082;18.178;2023-02-25T11:30:07;97283.50;;;5.16;67.67
76337;BME280;65157;50.082;18.178;2023-02-25T11:32:42;97290.31;;;5.12;67.09
76337;BME280;65157;50.082;18.178;2023-02-25T11:35:18;97305.27;;;5.08;66.72
76337;BME280;65157;50.082;18.178;2023-02-25T11:37:46;97307.77;;;4.99;67.29
76337;BME280;65157;50.082;18.178;2023-02-25T11:40:26;97315.05;;;4.94;67.68
76337;BME280;65157;50.082;18.178;2023-02-25T11:45:46;97324.21;;;4.83;67.62
76337;BME280;65157;50.082;18.178;2023-02-25T11:48:18;97319.40;;;4.74;68.58
76337;BME280;65157;50.082;18.178;2023-02-25T11:53:30;97322.05;;;4.73;69.32
76337;BME280;65157;50.082;18.178;2023-02-25T12:05:19;97324.17;;;4.90;69.15
76337;BME280;65157;50.082;18.178;2023-02-25T12:08:07;97323.83;;;5.00;68.28
76337;BME280;65157;50.082;18.178;2023-02-25T12:13:29;97330.26;;;5.22;68.34
76337;BME280;65157;50.082;18.178;2023-02-25T12:16:19;97331.58;;;5.26;67.92
76337;BME280;65157;50.082;18.178;2023-02-25T12:25:01;97351.48;;;5.30;68.54
76337;BME280;65157;50.082;18.178;2023-02-25T12:33:35;97360.35;;;5.14;68.69
76337;BME280;65157;50.082;18.178;2023-02-25T12:36:41;97361.13;;;5.09;68.95
76337;BME280;65157;50.082;18.178;2023-02-25T12:51:20;97377.99;;;4.90;69.01
76337;BME280;65157;50.082;18.178;2023-02-25T12:56:32;97383.23;;;4.77;68.72
76337;BME280;65157;50.082;18.178;2023-02-25T12:59:22;97383.95;;;4.76;69.31
76337;BME280;65157;50.082;18.178;2023-02-25T13:07:18;97389.04;;;4.80;68.33
76337;BME280;65157;50.082;18.178;2023-02-25T13:12:45;97391.19;;;4.68;68.44
76337;BME280;65157;50.082;18.178;2023-02-25T13:15:47;97392.89;;;4.65;68.54
76337;BME280;65157;50.082;18.178;2023-02-25T13:26:19;97416.89;;;4.64;68.44
76337;BME280;65157;50.082;18.178;2023-02-25T13:29:02;97409.21;;;4.56;69.73
76337;BME280;65157;50.082;18.178;2023-02-25T13:39:53;97429.90;;;4.40;71.59
76337;BME280;65157;50.082;18.178;2023-02-25T13:42:36;97433.90;;;4.36;70.96
76337;BME280;65157;50.082;18.178;2023-02-25T13:45:18;97434.94;;;4.33;70.13
76337;BME280;65157;50.082;18.178;2023-02-25T13:48:02;97437.05;;;4.32;69.47
76337;BME280;65157;50.082;18.178;2023-02-25T13:59:33;97459.05;;;4.21;67.78
76337;BME280;65157;50.082;18.178;2023-02-25T14:05:14;97468.89;;;4.20;70.35
76337;BME280;65157;50.082;18.178;2023-02-25T14:08:00;97470.83;;;4.20;70.79
76337;BME280;65157;50.082;18.178;2023-02-25T14:24:44;97487.17;;;4.10;69.40
76337;BME280;65157;50.082;18.178;2023-02-25T14:27:58;97489.75;;;4.14;69.32
76337;BME280;65157;50.082;18.178;2023-02-25T14:38:20;97499.73;;;4.33;68.69
76337;BME280;65157;50.082;18.178;2023-02-25T14:43:27;97509.48;;;4.30;68.73
76337;BME280;65157;50.082;18.178;2023-02-25T14:54:28;97513.61;;;4.20;68.97
76337;BME280;65157;50.082;18.178;2023-02-25T14:59:49;97517.77;;;4.20;69.35
76337;BME280;65157;50.082;18.178;2023-02-25T15:02:51;97521.47;;;4.23;69.07
76337;BME280;65157;50.082;18.178;2023-02-25T15:21:40;97543.02;;;4.10;64.36
76337;BME280;65157;50.082;18.178;2023-02-25T15:24:39;97546.59;;;4.04;64.77
76337;BME280;65157;50.082;18.178;2023-02-25T15:30:20;97562.70;;;3.95;67.25
76337;BME280;65157;50.082;18.178;2023-02-25T15:33:21;97564.77;;;3.83;69.63
76337;BME280;65157;50.082;18.178;2023-02-25T15:35:51;97567.13;;;3.69;71.00
76337;BME280;65157;50.082;18.178;2023-02-25T15:38:21;97570.89;;;3.62;71.55
76337;BME280;65157;50.082;18.178;2023-02-25T15:43:55;97580.36;;;3.57;71.98
76337;BME280;65157;50.082;18.178;2023-02-25T15:56:55;97595.83;;;3.59;71.81
76337;BME280;65157;50.082;18.178;2023-02-25T16:04:55;97602.23;;;3.25;73.27
76337;BME280;65157;50.082;18.178;2023-02-25T16:07:29;97605.11;;;3.18;73.81
76337;BME280;65157;50.082;18.178;2023-02-25T16:09:59;97605.12;;;3.09;74.33
76337;BME280;65157;50.082;18.178;2023-02-25T16:12:54;97610.29;;;2.97;74.50
76337;BME280;65157;50.082;18.178;2023-02-25T16:15:49;97612.87;;;2.89;74.48
76337;BME280;65157;50.082;18.178;2023-02-25T16:18:45;97613.75;;;2.79;74.71
76337;BME280;65157;50.082;18.178;2023-02-25T16:21:42;97623.65;;;2.71;74.81
76337;BME280;65157;50.082;18.178;2023-02-25T16:24:35;97629.87;;;2.63;75.29
76337;BME280;65157;50.082;18.178;2023-02-25T16:27:47;97636.77;;;2.55;74.68
76337;BME280;65157;50.082;18.178;2023-02-25T16:30:49;97645.99;;;2.45;74.77
76337;BME280;65157;50.082;18.178;2023-02-25T16:33:54;97658.36;;;2.41;74.77
76337;BME280;65157;50.082;18.178;2023-02-25T16:39:52;97669.70;;;2.25;75.63
76337;BME280;65157;50.082;18.178;2023-02-25T16:42:44;97677.91;;;2.19;75.67
76337;BME280;65157;50.082;18.178;2023-02-25T16:45:40;97688.70;;;2.14;76.04
76337;BME280;65157;50.082;18.178;2023-02-25T16:48:35;97695.15;;;2.09;76.52
76337;BME280;65157;50.082;18.178;2023-02-25T16:51:29;97699.45;;;2.05;76.52
76337;BME280;65157;50.082;18.178;2023-02-25T16:54:30;97708.61;;;2.01;76.80